Latest Weather Observations for Sheoaks

IDV60901

Issued at 9:21 am EDT Sunday 2 October 2016 (issued every 10 minutes, with the page automatically refreshed every 10 minutes)

About weather observations | Map of Melbourne area stations | Latest observations for Melbourne area | Other Formats
Station Details ID: 087168 Name: SHEOAKS Lat: -37.91 Lon: 144.13 Height: 236.7 m
Data from the previous 72 hours. | See also: Recent months at Sheoaks
Date/Time
EDT
Temp
°C
App
Temp
°C
Dew
Point
°C
Rel
Hum
%
Delta-T
°C
Wind Press
QNH
hPa
Press
MSL
hPa
Rain since
9am
mm
Dir  Spd
km/h
Gust
km/h
Spd
kts
Gust
kts
02/09:01am 15.5 8.1 5.1 50 5.0 N 33 52 18 28 1001.5 1001.4 0.0
02/09:00am 15.4 8.2 5.0 50 5.0 N 32 48 17 26 1001.5 1001.4 -
02/08:34am 15.5 8.3 4.8 49 5.1 N 32 63 17 34 1001.8 1001.7 -
02/08:30am 15.3 8.1 5.0 50 4.9 N 32 46 17 25 1001.9 1001.8 -
02/08:00am 14.9 8.1 5.1 52 4.7 N 30 46 16 25 1001.9 1001.8 -
02/07:38am 14.8 7.7 5.3 53 4.5 N 32 52 17 28 1002.0 1001.9 -
02/07:30am 14.8 7.4 5.1 52 4.6 N 33 50 18 27 1001.7 1001.6 -
02/07:13am 14.6 7.9 5.4 54 4.4 N 30 50 16 27 1001.8 1001.7 -
02/07:00am 14.3 9.1 5.4 55 4.3 N 22 44 12 24 1002.2 1002.1 -
02/06:30am 13.9 10.8 5.5 57 4.0 N 11 20 6 11 1003.1 1002.9 -
02/06:00am 13.4 8.6 5.6 59 3.7 N 20 32 11 17 1003.0 1002.8 -
02/05:30am 12.7 8.1 5.8 63 3.3 N 19 33 10 18 1003.2 1003.0 -
02/05:00am 12.4 6.9 5.8 64 3.1 N 24 37 13 20 1003.5 1003.3 -
02/04:30am 12.2 8.0 5.8 65 3.0 N 17 32 9 17 1003.6 1003.4 -
02/04:00am 10.8 8.7 5.8 71 2.4 NNW 6 13 3 7 1004.3 1004.2 -
02/03:30am 8.8 6.6 5.5 80 1.5 ESE 6 9 3 5 1004.4 1004.3 -
02/03:00am 9.5 7.2 5.7 77 1.8 ESE 7 13 4 7 1004.7 1004.6 0.0
02/01:30am 11.3 8.6 5.8 69 2.6 N 9 19 5 10 1005.2 1005.1 -
02/01:00am 11.2 7.0 5.7 69 2.6 NNW 17 28 9 15 1005.3 1005.2 -
02/12:30am 11.2 6.6 5.7 69 2.6 NNW 19 32 10 17 1005.5 1005.4 -
02/12:00am 10.9 7.1 5.7 70 2.4 NNW 15 26 8 14 1005.6 1005.5 -
 
Date/Time
EDT
Temp
°C
App
Temp
°C
Dew
Point
°C
Rel
Hum
%
Delta-T
°C
Wind Press
QNH
hPa
Press
MSL
hPa
Rain since
9am
mm
Dir  Spd
km/h
Gust
km/h
Spd
kts
Gust
kts
01/11:30pm 10.1 7.4 5.5 73 2.1 N 9 19 5 10 1005.8 1005.7 -
01/11:00pm 9.3 6.9 5.3 76 1.8 N 7 13 4 7 1006.3 1006.2 -
01/10:30pm 9.2 6.8 5.4 77 1.7 N 7 9 4 5 1006.6 1006.5 -
01/10:00pm 8.5 5.8 5.4 81 1.4 ENE 9 13 5 7 1006.6 1006.5 -
01/09:30pm 9.6 7.3 5.8 77 1.8 N 7 9 4 5 1007.2 1007.0 -
01/09:00pm 9.9 7.3 6.1 77 1.8 N 9 13 5 7 1007.5 1007.4 0.0
01/08:30pm 10.3 7.0 6.3 76 1.9 N 13 19 7 10 1007.5 1007.4 -
01/08:00pm 10.3 7.0 6.3 76 1.9 NNW 13 19 7 10 1007.2 1007.0 -
01/07:30pm 10.5 7.2 6.3 75 2.0 NNW 13 17 7 9 1006.7 1006.6 -
01/07:00pm 10.6 7.5 5.6 71 2.3 NW 11 22 6 12 1006.1 1006.0 -
01/06:30pm 11.4 8.1 6.3 71 2.4 NW 13 22 7 12 1005.7 1005.6 -
01/06:00pm 12.4 9.3 7.1 70 2.6 NW 13 22 7 12 1005.2 1005.1 -
01/05:30pm 12.9 8.6 7.1 68 2.8 NW 19 28 10 15 1005.0 1004.9 -
01/05:00pm 13.5 9.7 7.5 67 3.0 NW 17 30 9 16 1005.0 1004.9 -
01/04:30pm 13.9 10.1 7.7 66 3.1 NW 17 26 9 14 1004.7 1004.6 -
01/04:00pm 14.5 11.9 9.3 71 2.7 W 13 19 7 10 1004.5 1004.4 -
01/03:30pm 14.3 10.1 8.3 67 3.0 W 20 32 11 17 1004.4 1004.3 -
01/03:00pm 13.8 9.1 7.8 67 3.0 WNW 22 35 12 19 1004.4 1004.3 -
01/02:30pm 13.5 9.4 7.9 69 2.8 WNW 19 26 10 14 1004.3 1004.2 -
01/02:00pm 13.1 - 8.2 72 2.5 - - - - - 1003.9 1003.8 -
01/01:30pm 13.5 9.0 8.6 72 2.5 WNW 22 37 12 20 1003.7 1003.5 0.0
01/01:00pm 12.8 8.7 8.5 75 2.2 WNW 20 30 11 16 1003.8 1003.6 0.0
01/12:30pm 12.6 7.7 8.3 75 2.2 WNW 24 41 13 22 1003.8 1003.6 0.0
01/12:00pm 12.9 8.1 8.8 76 2.1 WNW 24 37 13 20 1003.6 1003.4 0.0
01/11:30am 12.4 6.6 9.4 82 1.5 W 30 48 16 26 1003.5 1003.3 0.0
01/11:08am 12.5 7.0 9.3 81 1.6 WNW 28 46 15 25 1003.6 1003.4 0.0
01/11:00am 12.4 5.9 9.1 80 1.7 WNW 33 46 18 25 1003.5 1003.3 0.0
01/10:41am 12.2 6.7 9.2 82 1.5 W 28 50 15 27 1003.4 1003.2 0.0
01/10:30am 11.8 6.8 9.5 86 1.2 WNW 26 41 14 22 1003.4 1003.2 0.0
01/10:00am 11.7 6.2 9.1 84 1.3 WNW 28 43 15 23 1003.2 1003.0 0.0
01/09:30am 11.3 6.0 9.7 90 0.8 WNW 28 52 15 28 1003.1 1003.1 0.0
01/09:27am 11.0 5.2 9.4 90 0.8 WNW 30 52 16 28 1003.0 1003.0 0.0
01/09:00am 10.9 5.9 9.5 91 0.7 WNW 26 41 14 22 1002.5 1002.6 4.0
01/08:30am 10.5 5.5 9.6 94 0.5 WNW 26 39 14 21 1002.2 1002.3 4.0
01/08:00am 10.4 5.4 9.5 94 0.5 WNW 26 39 14 21 1001.8 1001.9 3.8
01/07:30am 10.2 5.5 9.4 95 0.4 WNW 24 33 13 18 1001.3 1001.4 3.8
01/07:00am 10.2 4.8 9.6 96 0.3 WNW 28 41 15 22 1000.9 1001.0 3.8
01/06:30am 10.2 5.6 9.6 96 0.3 WNW 24 33 13 18 1000.4 1000.4 3.6
01/06:00am 10.3 4.5 9.4 94 0.5 W 30 46 16 25 999.7 999.7 3.0
01/05:30am 10.4 5.8 9.6 95 0.4 WNW 24 41 13 22 999.2 999.2 3.0
01/05:00am 10.5 6.3 9.7 95 0.4 WNW 22 32 12 17 998.9 998.9 3.0
01/04:30am 10.5 4.4 9.6 94 0.5 W 32 46 17 25 998.3 998.3 2.8
01/04:00am 10.7 6.1 9.8 94 0.5 W 24 39 13 21 997.8 997.9 2.6
01/03:42am 10.9 5.6 9.7 92 0.6 WNW 28 46 15 25 997.5 997.6 2.2
01/03:30am 10.8 6.2 9.7 93 0.6 WNW 24 39 13 21 997.4 997.5 2.2
01/03:00am 10.8 6.1 9.4 91 0.7 WNW 24 39 13 21 997.2 997.3 2.2
01/02:30am 10.9 6.6 9.3 90 0.8 WNW 22 37 12 20 997.0 997.1 2.2
01/02:00am 11.0 7.1 9.4 90 0.8 WNW 20 30 11 16 997.0 997.1 2.2
01/01:30am 10.7 6.4 9.3 91 0.7 WNW 22 37 12 20 996.8 996.8 2.2
01/01:00am 10.8 7.0 9.2 90 0.8 NW 19 33 10 18 996.9 996.9 2.2
01/12:30am 10.5 7.2 9.4 93 0.6 WNW 17 26 9 14 996.9 996.9 2.0
01/12:00am 10.3 7.7 9.2 93 0.6 NW 13 22 7 12 997.0 997.1 2.0
 
Date/Time
EDT
Temp
°C
App
Temp
°C
Dew
Point
°C
Rel
Hum
%
Delta-T
°C
Wind Press
QNH
hPa
Press
MSL
hPa
Rain since
9am
mm
Dir  Spd
km/h
Gust
km/h
Spd
kts
Gust
kts
30/11:30pm 10.2 6.7 8.8 91 0.7 NW 17 26 9 14 997.0 997.1 2.0
30/11:00pm 9.7 6.8 8.3 91 0.7 NW 13 19 7 10 997.1 997.2 2.0
30/10:30pm 9.5 6.9 7.8 89 0.8 NNW 11 15 6 8 997.1 997.2 2.0
30/10:00pm 9.3 7.0 7.6 89 0.8 NNW 9 11 5 6 997.2 997.3 2.0
30/09:30pm 9.2 7.3 7.5 89 0.8 NNW 7 11 4 6 997.3 997.4 2.0
30/09:00pm 9.4 7.6 7.8 90 0.8 NNW 7 9 4 5 997.3 997.4 2.0
30/08:30pm 9.7 8.0 8.3 91 0.7 NNW 7 11 4 6 997.3 997.4 2.0
30/08:00pm 10.1 8.7 8.7 91 0.7 NNW 6 7 3 4 997.1 997.2 2.0
30/07:30pm 10.4 9.5 9.2 92 0.6 E 4 6 2 3 997.0 997.1 2.0
30/07:00pm 10.3 9.3 8.9 91 0.7 SE 4 4 2 2 996.6 996.6 2.0
30/06:30pm 10.3 8.8 8.4 88 0.9 SE 6 6 3 3 996.1 996.1 2.0
30/06:00pm 11.1 10.4 8.7 85 1.2 S 2 4 1 2 995.9 995.9 2.0
30/05:30pm 11.5 9.1 8.5 82 1.5 S 11 15 6 8 995.6 995.6 2.0
30/05:00pm 12.7 9.2 8.6 76 2.1 W 17 24 9 13 995.3 995.3 2.0
30/04:30pm 13.0 8.7 7.2 68 2.8 WSW 19 33 10 18 994.9 994.9 2.0
30/04:00pm 12.9 9.4 7.4 69 2.7 W 15 24 8 13 994.4 994.4 2.0
30/03:30pm 13.4 10.4 7.8 69 2.8 WSW 13 22 7 12 993.9 993.9 2.0
30/03:00pm 12.7 10.2 8.0 73 2.4 W 11 20 6 11 993.4 993.5 2.0
30/02:30pm 13.8 10.2 8.2 69 2.8 W 17 28 9 15 993.3 993.3 2.0
30/02:00pm 13.8 10.9 8.2 69 2.9 W 13 20 7 11 993.2 993.2 2.0
30/01:30pm 13.9 11.2 7.2 64 3.3 WSW 11 19 6 10 993.1 993.1 2.0
30/01:00pm 12.8 10.2 7.9 72 2.5 WSW 11 20 6 11 993.0 993.0 2.0
30/12:30pm 12.6 10.6 8.5 76 2.1 W 9 17 5 9 992.8 992.8 2.0
30/12:00pm 12.2 10.3 9.2 82 1.5 W 9 17 5 9 992.7 992.7 2.0
30/11:30am 11.0 8.6 8.8 86 1.1 WSW 11 19 6 10 992.7 992.7 2.0
30/11:00am 10.3 7.6 8.9 91 0.7 WSW 13 19 7 10 992.7 992.7 1.8
30/10:30am 9.5 6.7 8.6 94 0.4 W 13 17 7 9 992.7 992.7 1.8
30/10:00am 9.1 6.2 8.0 93 0.5 W 13 19 7 10 992.5 992.5 1.0
30/09:30am 10.4 7.8 7.6 83 1.4 WSW 11 22 6 12 992.1 992.1 0.0
30/09:00am 10.1 7.6 8.0 87 1.0 WSW 11 17 6 9 991.8 991.8 1.2
30/08:30am 9.9 8.0 9.1 95 0.4 W 9 17 5 9 991.3 991.3 1.2
30/08:00am 8.3 5.8 8.0 98 0.1 WNW 11 17 6 9 990.7 990.7 1.2
30/07:30am 6.9 4.4 6.6 98 0.1 WNW 9 17 5 9 990.3 990.3 1.2
30/07:00am 6.9 4.8 6.5 97 0.2 W 7 11 4 6 990.1 990.1 1.2
30/06:30am 7.0 5.8 6.6 97 0.2 NNW 2 4 1 2 989.5 989.4 1.2
30/06:00am 6.8 5.6 6.4 97 0.2 NNW 2 4 1 2 989.0 989.0 1.2
30/05:30am 6.8 6.0 6.4 97 0.2 CALM 0 4 0 2 988.8 988.8 1.2
30/05:00am 7.0 6.2 6.6 97 0.2 CALM 0 4 0 2 988.4 988.4 1.2
30/04:30am 7.0 6.2 6.4 96 0.3 CALM 0 2 0 1 988.1 988.1 1.2
30/04:00am 7.4 5.5 6.8 96 0.3 NE 6 6 3 3 987.8 987.8 1.2
30/03:30am 7.4 5.9 6.7 95 0.3 E 4 6 2 3 987.7 987.7 1.0
30/03:00am 7.1 5.5 6.4 95 0.3 ESE 4 6 2 3 987.7 987.7 0.4
30/02:30am 6.8 5.1 5.9 94 0.4 SE 4 4 2 2 987.7 987.7 0.4
30/02:00am 6.8 4.5 5.9 94 0.4 ESE 7 9 4 5 987.7 987.7 0.4
30/01:30am 6.8 5.1 5.7 93 0.5 SSE 4 6 2 3 987.8 987.8 0.4
30/01:00am 6.9 4.8 5.8 93 0.5 ESE 6 9 3 5 987.7 987.7 0.4
30/12:30am 6.9 4.7 6.0 94 0.4 ESE 7 9 4 5 987.6 987.6 0.4
30/12:00am 6.8 4.5 5.7 93 0.5 ESE 7 9 4 5 987.7 987.7 0.4
 
Date/Time
EDT
Temp
°C
App
Temp
°C
Dew
Point
°C
Rel
Hum
%
Delta-T
°C
Wind Press
QNH
hPa
Press
MSL
hPa
Rain since
9am
mm
Dir  Spd
km/h
Gust
km/h
Spd
kts
Gust
kts
29/11:30pm 7.3 4.7 6.1 92 0.6 SE 9 13 5 7 987.7 987.7 0.4
29/11:00pm 7.6 4.6 6.2 91 0.7 ESE 11 15 6 8 987.9 987.9 0.4
29/10:30pm 8.0 5.5 6.5 90 0.7 E 9 17 5 9 988.1 988.1 0.4
29/10:00pm 8.0 4.3 6.5 90 0.7 E 15 24 8 13 988.4 988.4 0.4
29/09:30pm 7.9 3.8 6.2 89 0.8 E 17 22 9 12 988.4 988.4 0.4
29/09:00pm 7.7 4.2 5.5 86 1.0 E 13 19 7 10 988.7 988.7 0.4
29/08:30pm 7.9 4.8 5.5 85 1.1 ESE 11 15 6 8 989.0 989.0 0.2
29/08:00pm 8.3 5.6 5.6 83 1.3 E 9 11 5 6 989.1 989.1 0.2
29/07:30pm 8.4 6.2 5.5 82 1.3 E 6 9 3 5 989.1 989.1 0.2
29/07:00pm 8.7 6.5 5.3 79 1.6 NE 6 7 3 4 989.0 989.0 0.2
29/06:30pm 8.9 5.6 4.5 74 2.0 N 11 17 6 9 988.8 988.8 0.2
29/06:00pm 9.3 6.0 4.7 73 2.1 NNE 11 19 6 10 988.6 988.6 0.2
29/05:30pm 9.2 6.0 5.2 76 1.8 N 11 15 6 8 988.5 988.5 0.2
29/05:00pm 9.0 5.1 5.2 77 1.8 N 15 24 8 13 988.3 988.3 0.2
29/04:30pm 8.9 4.1 4.7 75 1.9 N 19 26 10 14 988.2 988.2 0.2
29/04:00pm 12.4 8.5 5.3 62 3.4 NE 15 28 8 15 987.5 987.5 0.0
29/03:30pm 10.9 8.4 5.0 67 2.7 NNE 7 15 4 8 987.7 987.7 0.0
29/03:11pm 9.4 2.2 5.2 75 1.9 N 32 50 17 27 988.0 988.0 0.0
29/03:00pm 12.6 7.0 3.6 54 4.1 N 22 52 12 28 987.4 987.4 0.0
29/02:30pm 13.1 8.2 5.0 58 3.8 N 20 33 11 18 987.5 987.5 0.0
29/02:00pm 13.2 7.5 3.0 50 4.6 N 22 33 12 18 987.4 987.4 0.0
29/01:30pm 13.8 7.9 4.1 52 4.5 N 24 33 13 18 987.7 987.7 0.0
29/01:00pm 12.9 7.5 4.6 57 3.9 N 22 32 12 17 988.1 988.1 0.0
29/12:30pm 12.8 7.5 5.0 59 3.6 N 22 37 12 20 988.6 988.6 0.0
29/12:00pm 12.2 7.1 3.9 57 3.8 N 20 33 11 18 988.9 988.9 0.0
29/11:34am 11.6 4.8 3.1 56 3.8 NNW 28 48 15 26 988.8 988.8 0.0
29/11:30am 12.1 5.9 4.3 59 3.6 NNW 26 37 14 20 988.9 988.9 0.0
29/11:00am 11.6 6.1 4.1 60 3.5 NNW 22 37 12 20 989.0 989.0 0.0
29/10:30am 11.9 5.9 5.1 63 3.2 N 26 41 14 22 988.9 988.9 0.0
29/10:00am 11.8 7.0 5.7 66 2.9 NW 20 33 11 18 988.5 988.5 0.0
29/09:30am 10.8 7.5 6.2 73 2.2 NNW 13 20 7 11 988.5 988.5 0.0
29/09:00am 10.3 8.4 7.7 84 1.3 NNW 7 13 4 7 989.0 989.0 3.4
29/08:30am 9.3 5.4 6.9 85 1.1 NW 17 26 9 14 989.3 989.3 3.0

Latest Capital City Observations: Canberra | Sydney | Melbourne | Brisbane | Adelaide | Perth | Hobart | Darwin

Other Formats:

Comma delimited format used in spreadsheet applications
http://www.bom.gov.au/fwo/IDV60901/IDV60901.94863.axf

JavaScript Object Notation format (JSON) in row-major order
http://www.bom.gov.au/fwo/IDV60901/IDV60901.94863.json